createdAt,value
2023-02-09T00:01:18.242Z,-2.75
2023-02-09T00:06:15.404Z,-2.56
2023-02-09T00:11:10.688Z,-2.37
2023-02-09T00:16:05.740Z,-2.32
2023-02-09T00:21:03.520Z,-2.45
2023-02-09T00:25:59.576Z,-2.56
2023-02-09T00:30:53.043Z,-2.51
2023-02-09T00:35:46.757Z,-2.64
2023-02-09T00:40:42.863Z,-2.69
2023-02-09T00:45:37.202Z,-2.89
2023-02-09T00:50:33.666Z,-2.94
2023-02-09T00:55:29.069Z,-2.85
2023-02-09T01:00:24.065Z,-2.91
2023-02-09T01:05:17.930Z,-2.98
2023-02-09T01:10:14.727Z,-2.93
2023-02-09T01:15:11.451Z,-2.92
2023-02-09T01:20:09.726Z,-2.86
2023-02-09T01:25:03.434Z,-2.92
2023-02-09T01:29:56.840Z,-2.92
2023-02-09T01:34:52.725Z,-3.01
2023-02-09T01:39:47.670Z,-3.11
2023-02-09T01:45:16.077Z,-3.18
2023-02-09T01:50:10.321Z,-3.01
2023-02-09T01:55:11.679Z,-3.00
2023-02-09T02:00:10.304Z,-3.00
2023-02-09T02:05:05.894Z,-2.82
2023-02-09T02:09:59.768Z,-2.88
2023-02-09T02:14:54.493Z,-3.09
2023-02-09T02:20:53.664Z,-3.12
2023-02-09T02:26:49.661Z,-3.13
2023-02-09T02:32:23.104Z,-3.21
2023-02-09T02:37:43.414Z,-3.33
2023-02-09T02:42:53.465Z,-3.31
2023-02-09T02:47:59.430Z,-3.19
2023-02-09T02:52:58.729Z,-3.21
2023-02-09T02:57:57.695Z,-3.03
2023-02-09T03:03:01.166Z,-3.04
2023-02-09T03:07:57.056Z,-3.38
2023-02-09T03:13:21.757Z,-3.49
2023-02-09T03:23:58.195Z,-2.96
2023-02-09T03:28:57.872Z,-3.04
2023-02-09T03:33:53.088Z,-3.40
2023-02-09T03:38:46.779Z,-3.52
2023-02-09T03:43:57.635Z,-3.44
2023-02-09T03:48:52.387Z,-3.43
2023-02-09T03:53:47.230Z,-3.33
2023-02-09T03:58:45.712Z,-3.45
2023-02-09T04:03:40.898Z,-3.63
2023-02-09T04:08:37.737Z,-3.43
2023-02-09T04:13:42.236Z,-3.40
2023-02-09T04:18:38.491Z,-3.27
2023-02-09T04:23:32.060Z,-3.43
2023-02-09T04:28:27.006Z,-3.57
2023-02-09T04:33:20.505Z,-3.58
2023-02-09T04:38:29.097Z,-3.73
2023-02-09T04:43:38.581Z,-3.76
2023-02-09T04:48:46.771Z,-3.82
2023-02-09T04:53:48.824Z,-3.74
2023-02-09T04:59:10.385Z,-3.81
2023-02-09T05:04:04.033Z,-3.75
2023-02-09T05:09:08.519Z,-3.85
2023-02-09T05:14:03.295Z,-4.16
2023-02-09T05:18:56.620Z,-4.22
2023-02-09T05:23:49.994Z,-4.15
2023-02-09T05:28:43.308Z,-4.02
2023-02-09T05:33:38.080Z,-4.05
2023-02-09T05:38:31.429Z,-3.89
2023-02-09T05:43:24.709Z,-4.04
2023-02-09T05:48:18.719Z,-3.75
2023-02-09T05:53:15.206Z,-3.92
2023-02-09T05:58:08.701Z,-3.76
2023-02-09T06:03:26.538Z,-3.94
2023-02-09T06:08:29.832Z,-3.93
2023-02-09T06:13:23.237Z,-4.25
2023-02-09T06:18:16.821Z,-4.22
2023-02-09T06:23:10.196Z,-4.11
2023-02-09T06:28:09.892Z,-3.93
2023-02-09T06:33:03.252Z,-3.81
2023-02-09T06:37:59.016Z,-3.82
2023-02-09T06:43:07.629Z,-3.71
2023-02-09T06:48:02.605Z,-3.95
2023-02-09T06:52:56.134Z,-3.95
2023-02-09T06:57:49.593Z,-3.78
2023-02-09T07:02:43.850Z,-3.93
2023-02-09T07:07:39.322Z,-4.18
2023-02-09T07:12:32.769Z,-4.06
2023-02-09T07:17:26.242Z,-3.92
2023-02-09T07:22:20.786Z,-3.61
2023-02-09T07:27:15.939Z,-3.68
2023-02-09T07:32:09.797Z,-3.35
2023-02-09T07:37:04.622Z,-3.21
2023-02-09T07:41:58.138Z,-3.03
2023-02-09T07:47:14.714Z,-3.01
2023-02-09T07:52:38.700Z,-2.95
2023-02-09T07:57:47.288Z,-2.80
2023-02-09T08:03:11.701Z,-2.61
2023-02-09T08:14:53.615Z,-2.43
2023-02-09T08:20:34.632Z,-2.36
2023-02-09T08:26:32.596Z,-2.37
2023-02-09T08:31:53.775Z,-2.20
2023-02-09T08:37:04.345Z,-2.11
2023-02-09T08:42:23.626Z,-2.14
2023-02-09T08:47:33.481Z,-1.93
2023-02-09T08:52:54.402Z,-1.82
2023-02-09T08:58:10.013Z,-1.77
2023-02-09T09:03:32.481Z,-1.62
2023-02-09T09:08:56.573Z,-1.35
2023-02-09T09:14:16.175Z,-1.45
2023-02-09T10:48:58.866Z,-0.21
2023-02-09T11:00:49.188Z,-0.10
2023-02-09T11:06:35.995Z,0.04
2023-02-09T11:17:49.458Z,0.13
2023-02-09T11:24:01.916Z,0.32
2023-02-09T11:35:29.553Z,0.46
2023-02-09T11:46:27.549Z,0.68
2023-02-09T11:51:23.794Z,0.82
2023-02-09T11:56:23.556Z,0.85
2023-02-09T12:01:36.056Z,0.91
2023-02-09T12:06:42.095Z,1.06
2023-02-09T12:11:50.813Z,1.24
2023-02-09T12:16:55.214Z,1.23
2023-02-09T12:21:50.667Z,1.17
2023-02-09T12:26:46.920Z,1.24
2023-02-09T12:32:26.449Z,1.24
2023-02-09T12:37:29.279Z,1.25
2023-02-09T12:42:31.057Z,1.27
2023-02-09T12:47:58.722Z,1.24
2023-02-09T12:53:45.364Z,1.34
2023-02-09T12:58:54.359Z,1.40
2023-02-09T13:03:59.998Z,1.46
2023-02-09T13:08:58.325Z,1.48
2023-02-09T13:13:57.392Z,1.45
2023-02-09T13:19:07.758Z,1.63
2023-02-09T13:24:11.616Z,1.64
2023-02-09T13:29:19.761Z,1.69
2023-02-09T13:34:35.325Z,1.73
2023-02-09T13:39:39.825Z,1.73
2023-02-09T13:49:41.333Z,1.80
2023-02-09T13:54:34.757Z,1.72
2023-02-09T13:59:28.479Z,1.70
2023-02-09T14:04:26.573Z,1.80
2023-02-09T14:09:27.797Z,2.03
2023-02-09T14:14:50.825Z,1.98
2023-02-09T14:19:57.736Z,1.88
2023-02-09T14:24:55.071Z,1.88
2023-02-09T14:29:51.004Z,1.89
2023-02-09T14:34:44.566Z,1.81
2023-02-09T14:39:56.637Z,1.82
2023-02-09T14:44:55.984Z,1.85
2023-02-09T14:49:49.398Z,2.02
2023-02-09T14:54:51.460Z,1.89
2023-02-09T14:59:48.739Z,1.91
2023-02-09T15:04:42.347Z,1.95
2023-02-09T15:09:41.283Z,1.91
2023-02-09T15:14:46.849Z,1.89
2023-02-09T15:19:41.828Z,1.89
2023-02-09T15:24:35.661Z,1.92
2023-02-09T15:29:29.437Z,1.83
2023-02-09T15:34:23.580Z,1.81
2023-02-09T15:39:23.215Z,1.76
2023-02-09T15:44:37.564Z,1.76
2023-02-09T15:49:31.453Z,1.69
2023-02-09T15:54:33.922Z,1.65
2023-02-09T15:59:27.513Z,1.64
2023-02-09T16:04:21.311Z,1.62
2023-02-09T16:09:22.356Z,1.51
2023-02-09T16:14:21.185Z,1.43
2023-02-09T16:19:14.811Z,1.33
2023-02-09T16:24:22.207Z,1.22
2023-02-09T16:29:17.412Z,1.11
2023-02-09T16:34:15.467Z,0.98
2023-02-09T16:39:18.635Z,0.86
2023-02-09T16:44:21.386Z,0.75
2023-02-09T16:49:32.960Z,0.60
2023-02-09T16:54:26.343Z,0.53
2023-02-09T16:59:22.381Z,0.41
2023-02-09T17:04:15.865Z,0.36
2023-02-09T17:09:16.341Z,0.29
2023-02-09T17:14:10.311Z,0.22
2023-02-09T17:19:13.957Z,0.22
2023-02-09T17:24:14.036Z,0.23
2023-02-09T17:29:07.590Z,0.12
2023-02-09T17:34:08.012Z,0.03
2023-02-09T17:39:05.551Z,0.05
2023-02-09T17:44:22.386Z,0.02
2023-02-09T17:49:23.872Z,0.03
2023-02-09T17:54:19.938Z,-0.13
2023-02-09T17:59:14.290Z,-0.17
2023-02-09T18:04:17.463Z,-0.10
2023-02-09T18:09:21.007Z,-0.07
2023-02-09T18:14:19.305Z,-0.09
2023-02-09T18:19:13.623Z,-0.10
2023-02-09T18:24:08.071Z,-0.09
2023-02-09T18:29:02.984Z,-0.16
2023-02-09T18:33:58.159Z,-0.35
2023-02-09T18:38:53.506Z,-0.22
2023-02-09T18:43:47.013Z,-0.17
2023-02-09T18:48:41.901Z,-0.38
2023-02-09T18:53:35.400Z,-0.45
2023-02-09T18:58:28.900Z,-0.52
2023-02-09T19:03:31.736Z,-0.46
2023-02-09T19:08:26.568Z,-0.41
2023-02-09T19:13:52.111Z,-0.39
2023-02-09T19:19:11.994Z,-0.46
2023-02-09T19:24:07.461Z,-0.56
2023-02-09T19:34:29.060Z,-0.72
2023-02-09T19:39:23.852Z,-0.63
2023-02-09T19:44:17.569Z,-0.57
2023-02-09T19:49:19.204Z,-0.55
2023-02-09T19:54:15.790Z,-0.67
2023-02-09T19:59:16.519Z,-0.82
2023-02-09T20:04:14.571Z,-0.81
2023-02-09T20:09:12.478Z,-0.74
2023-02-09T20:14:07.237Z,-0.65
2023-02-09T20:19:02.517Z,-0.65
2023-02-09T20:23:58.278Z,-0.70
2023-02-09T20:28:52.235Z,-0.97
2023-02-09T20:33:45.938Z,-0.97
2023-02-09T20:38:51.707Z,-0.97
2023-02-09T20:44:13.241Z,-1.08
2023-02-09T20:49:09.328Z,-1.08
2023-02-09T20:54:04.810Z,-0.99
2023-02-09T20:59:02.362Z,-1.06
2023-02-09T21:03:58.881Z,-1.16
2023-02-09T21:08:53.282Z,-1.06
2023-02-09T21:13:49.684Z,-1.13
2023-02-09T21:18:44.433Z,-1.19
2023-02-09T21:23:38.054Z,-1.02
2023-02-09T21:28:31.937Z,-1.12
2023-02-09T21:33:27.217Z,-1.17
2023-02-09T21:38:20.577Z,-1.12
2023-02-09T21:43:13.921Z,-1.08
2023-02-09T21:48:07.463Z,-1.01
2023-02-09T21:53:03.075Z,-1.01
2023-02-09T21:57:56.385Z,-1.00
2023-02-09T22:02:54.401Z,-1.34
2023-02-09T22:07:48.377Z,-1.26
2023-02-09T22:12:43.131Z,-1.25
2023-02-09T22:17:38.541Z,-1.22
2023-02-09T22:22:32.214Z,-1.18
2023-02-09T22:27:25.661Z,-1.09
2023-02-09T22:32:21.266Z,-1.34
2023-02-09T22:37:14.596Z,-1.39
2023-02-09T22:42:08.253Z,-1.29
2023-02-09T22:47:01.925Z,-1.48
2023-02-09T22:51:56.653Z,-1.54
2023-02-09T22:56:50.099Z,-1.50
2023-02-09T23:01:44.453Z,-1.66
2023-02-09T23:06:38.198Z,-1.62
2023-02-09T23:11:33.577Z,-1.47
2023-02-09T23:16:30.035Z,-1.50
2023-02-09T23:21:27.563Z,-1.71
2023-02-09T23:26:22.272Z,-1.93
2023-02-09T23:31:20.858Z,-1.78
2023-02-09T23:36:18.286Z,-1.76
2023-02-09T23:41:15.145Z,-1.85
2023-02-09T23:46:13.276Z,-1.84
2023-02-09T23:51:12.345Z,-1.85
2023-02-09T23:56:06.594Z,-2.00
